Terminal Aerodrome Forecast
Issued by NWS Kansas City/Pleasant Hill, MO

Home | Current Version | Previous Version | Text Only | Print | Product List | Glossary On
Versions: 1 2 3 4 5 6 7 8 9 10 11 12 13 14 15 16 17 18
000
FTUS43 KEAX 071121
TAFMCI
TAF
KMCI 071121Z 0712/0812 23012KT P6SM BKN200 WS020/25045KT
     FM071400 26013KT P6SM BKN150
     FM071700 30019G28KT P6SM BKN120
     FM080100 30014KT P6SM OVC080
     FM080900 31015G24KT 5SM -SHSN BR BKN020=

USA.gov is the U.S. government's official web portal to all federal, state and local government web resources and services.